createdAt,value
2022-12-27T00:00:43.475Z,28.53
2022-12-27T00:01:45.647Z,27.83
2022-12-27T00:02:47.294Z,25.80
2022-12-27T00:03:49.541Z,24.53
2022-12-27T00:04:51.322Z,23.67
2022-12-27T00:05:52.954Z,25.53
2022-12-27T00:06:54.849Z,22.30
2022-12-27T00:07:56.405Z,28.10
2022-12-27T00:08:58.962Z,26.33
2022-12-27T00:10:00.583Z,26.10
2022-12-27T00:11:11.727Z,26.30
2022-12-27T00:12:13.322Z,22.77
2022-12-27T00:13:14.890Z,25.53
2022-12-27T00:14:16.450Z,22.93
2022-12-27T00:15:18.050Z,21.40
2022-12-27T00:16:21.119Z,22.23
2022-12-27T00:17:22.758Z,21.13
2022-12-27T00:18:24.356Z,26.00
2022-12-27T00:19:25.904Z,22.90
2022-12-27T00:20:27.465Z,24.20
2022-12-27T00:21:29.136Z,21.00
2022-12-27T00:22:30.654Z,24.57
2022-12-27T00:23:37.944Z,21.63
2022-12-27T00:24:40.315Z,22.03
2022-12-27T00:25:41.847Z,20.13
2022-12-27T00:26:43.388Z,20.47
2022-12-27T00:27:44.905Z,28.57
2022-12-27T00:28:46.557Z,27.23
2022-12-27T00:29:48.098Z,26.30
2022-12-27T00:30:54.717Z,25.70
2022-12-27T00:31:56.398Z,25.93
2022-12-27T00:32:57.927Z,25.10
2022-12-27T00:34:01.802Z,21.60
2022-12-27T00:35:03.677Z,22.53
2022-12-27T00:36:08.193Z,21.20
2022-12-27T00:37:09.733Z,25.23
2022-12-27T00:38:11.243Z,24.57
2022-12-27T00:39:12.781Z,25.17
2022-12-27T00:40:14.326Z,25.07
2022-12-27T00:41:17.301Z,23.90
2022-12-27T00:42:18.857Z,23.30
2022-12-27T00:43:20.419Z,24.23
2022-12-27T00:44:21.948Z,23.43
2022-12-27T00:45:23.522Z,20.87
2022-12-27T00:46:25.145Z,27.40
2022-12-27T00:47:26.653Z,26.00
2022-12-27T00:48:28.337Z,26.67
2022-12-27T00:49:29.970Z,25.03
2022-12-27T00:50:31.628Z,22.47
2022-12-27T00:51:33.223Z,22.17
2022-12-27T00:52:34.776Z,21.10
2022-12-27T00:53:37.044Z,21.47
2022-12-27T00:54:38.775Z,22.33
2022-12-27T00:55:44.005Z,26.97
2022-12-27T00:56:45.604Z,31.27
2022-12-27T00:57:47.172Z,26.57
2022-12-27T00:58:53.265Z,31.60
2022-12-27T00:59:54.942Z,24.40
2022-12-27T01:01:09.263Z,20.73
2022-12-27T01:02:10.837Z,19.27
2022-12-27T01:03:12.407Z,32.67
2022-12-27T01:04:14.649Z,34.43
2022-12-27T01:05:16.731Z,26.30
2022-12-27T01:06:22.786Z,20.37
2022-12-27T01:07:24.890Z,20.20
2022-12-27T01:08:26.461Z,20.97
2022-12-27T01:09:28.054Z,18.33
2022-12-27T01:10:29.577Z,17.90
2022-12-27T01:11:32.097Z,17.80
2022-12-27T01:12:35.040Z,17.70
2022-12-27T01:13:36.973Z,17.43
2022-12-27T01:14:38.522Z,18.50
2022-12-27T01:15:42.466Z,16.60
2022-12-27T01:16:44.343Z,16.67
2022-12-27T01:17:45.973Z,17.80
2022-12-27T01:18:48.327Z,18.00
2022-12-27T01:19:49.855Z,17.93
2022-12-27T01:20:51.441Z,17.93
2022-12-27T01:21:53.007Z,19.00
2022-12-27T01:22:54.945Z,18.60
2022-12-27T01:23:56.661Z,21.10
2022-12-27T01:24:58.173Z,19.07
2022-12-27T01:26:01.917Z,19.33
2022-12-27T01:27:03.516Z,19.53
2022-12-27T01:28:05.277Z,23.80
2022-12-27T01:29:06.789Z,21.27
2022-12-27T01:30:09.125Z,19.00
2022-12-27T01:31:14.329Z,25.23
2022-12-27T01:32:15.899Z,20.30
2022-12-27T01:33:17.446Z,20.73
2022-12-27T01:34:19.210Z,24.07
2022-12-27T01:35:20.736Z,25.47
2022-12-27T01:36:23.923Z,22.67
2022-12-27T01:37:28.864Z,22.90
2022-12-27T01:38:30.468Z,29.53
2022-12-27T01:39:32.079Z,41.43
2022-12-27T01:40:36.349Z,34.87
2022-12-27T01:42:00.633Z,27.03
2022-12-27T01:43:02.403Z,23.93
2022-12-27T01:44:34.724Z,23.40
2022-12-27T01:45:37.142Z,22.07
2022-12-27T01:46:38.760Z,22.43
2022-12-27T01:47:58.973Z,23.93
2022-12-27T01:49:03.243Z,19.73
2022-12-27T01:50:29.817Z,21.53
2022-12-27T01:51:31.451Z,18.77
2022-12-27T01:52:39.775Z,19.73
2022-12-27T01:53:44.773Z,19.73
2022-12-27T01:54:46.674Z,18.30
2022-12-27T01:56:00.312Z,21.93
2022-12-27T01:57:02.692Z,19.50
2022-12-27T01:58:13.294Z,18.10
2022-12-27T01:59:15.316Z,17.97
2022-12-27T02:00:17.610Z,19.37
2022-12-27T02:01:23.508Z,19.03
2022-12-27T02:02:25.318Z,20.47
2022-12-27T02:03:30.205Z,20.93
2022-12-27T02:04:32.785Z,20.40
2022-12-27T02:05:35.327Z,21.57
2022-12-27T02:06:39.470Z,20.97
2022-12-27T02:07:55.749Z,19.23
2022-12-27T02:09:28.491Z,17.60
2022-12-27T02:10:31.248Z,19.33
2022-12-27T02:11:51.161Z,19.43
2022-12-27T02:12:52.944Z,20.60
2022-12-27T02:13:54.674Z,22.57
2022-12-27T02:14:56.196Z,18.73
2022-12-27T02:15:57.756Z,18.07
2022-12-27T02:17:02.188Z,17.40
2022-12-27T02:18:04.250Z,20.20
2022-12-27T02:19:30.723Z,20.27
2022-12-27T02:20:59.178Z,18.00
2022-12-27T02:22:15.878Z,16.50
2022-12-27T02:23:50.065Z,16.70
2022-12-27T02:25:03.690Z,16.93
2022-12-27T02:26:14.366Z,14.67
2022-12-27T02:27:34.480Z,15.00
2022-12-27T02:29:05.334Z,14.80
2022-12-27T02:30:10.113Z,16.40
2022-12-27T02:31:17.080Z,17.33
2022-12-27T02:32:49.566Z,16.97
2022-12-27T02:33:53.325Z,18.17
2022-12-27T02:35:14.678Z,18.17
2022-12-27T02:36:23.869Z,17.50
2022-12-27T02:37:29.342Z,19.97
2022-12-27T02:38:36.202Z,18.13
2022-12-27T02:39:42.211Z,17.87
2022-12-27T02:41:04.253Z,17.70
2022-12-27T02:42:25.084Z,16.60
2022-12-27T02:43:46.887Z,18.70
2022-12-27T02:45:07.401Z,18.00
2022-12-27T02:46:35.795Z,15.17
2022-12-27T02:47:56.457Z,15.77
2022-12-27T02:49:17.526Z,16.73
2022-12-27T02:50:37.979Z,16.10
2022-12-27T02:52:24.973Z,16.23
2022-12-27T02:53:57.993Z,16.13
2022-12-27T02:54:59.503Z,15.87
2022-12-27T02:56:35.158Z,16.77
2022-12-27T02:57:55.557Z,17.00
2022-12-27T02:59:15.859Z,17.27
2022-12-27T03:00:38.398Z,18.47
2022-12-27T03:01:58.297Z,16.67
2022-12-27T03:03:21.138Z,17.03
2022-12-27T03:04:22.645Z,18.23
2022-12-27T03:06:09.439Z,18.43
2022-12-27T03:07:17.384Z,18.30
2022-12-27T03:08:31.689Z,16.83
2022-12-27T03:10:01.728Z,17.93
2022-12-27T03:11:21.989Z,18.60
2022-12-27T03:13:19.579Z,16.90
2022-12-27T03:14:47.443Z,17.53
2022-12-27T03:16:08.812Z,16.67
2022-12-27T03:17:49.043Z,17.73
2022-12-27T03:19:02.960Z,16.37
2022-12-27T03:20:28.123Z,19.97
2022-12-27T03:21:52.965Z,19.53
2022-12-27T03:23:15.230Z,14.63
2022-12-27T03:24:38.128Z,14.80
2022-12-27T03:25:42.664Z,15.73
2022-12-27T03:26:50.148Z,19.77
2022-12-27T03:28:12.834Z,18.47
2022-12-27T03:29:36.756Z,17.53
2022-12-27T03:30:58.774Z,17.20
2022-12-27T03:32:23.726Z,16.90
2022-12-27T03:33:27.570Z,16.27
2022-12-27T03:34:36.007Z,16.50
2022-12-27T03:36:06.820Z,17.27
2022-12-27T03:37:32.616Z,18.20
2022-12-27T03:38:43.309Z,18.83
2022-12-27T03:40:08.105Z,16.47
2022-12-27T03:41:51.604Z,16.07
2022-12-27T03:43:13.911Z,17.77
2022-12-27T03:44:25.073Z,19.40
2022-12-27T03:45:53.340Z,19.43
2022-12-27T03:47:00.736Z,18.93
2022-12-27T03:48:06.305Z,19.20
2022-12-27T03:49:19.986Z,21.13
2022-12-27T03:50:28.548Z,20.03
2022-12-27T03:51:36.089Z,17.00
2022-12-27T03:53:00.946Z,17.70
2022-12-27T03:54:10.447Z,16.70
2022-12-27T03:55:12.598Z,17.30
2022-12-27T03:56:14.379Z,19.17
2022-12-27T03:57:19.155Z,20.13
2022-12-27T03:58:21.027Z,21.37
2022-12-27T03:59:22.867Z,20.70
2022-12-27T04:00:24.450Z,20.43
2022-12-27T04:01:26.090Z,19.73
2022-12-27T04:02:27.911Z,21.47
2022-12-27T04:03:29.586Z,23.80
2022-12-27T04:04:31.494Z,21.60
2022-12-27T04:05:33.009Z,19.33
2022-12-27T04:06:34.511Z,17.03
2022-12-27T04:07:36.102Z,19.27
2022-12-27T04:08:56.095Z,17.53
2022-12-27T04:10:16.154Z,17.27
2022-12-27T04:11:36.154Z,17.30
2022-12-27T04:12:56.790Z,18.47
2022-12-27T04:14:16.671Z,17.80
2022-12-27T04:15:36.609Z,18.20
2022-12-27T04:16:56.729Z,19.47
2022-12-27T04:18:16.810Z,19.30
2022-12-27T04:19:36.668Z,20.77
2022-12-27T04:20:57.007Z,19.63
2022-12-27T04:22:17.301Z,21.10
2022-12-27T04:23:37.530Z,20.80
2022-12-27T04:24:57.686Z,19.17
2022-12-27T04:26:17.750Z,20.20
2022-12-27T04:27:37.545Z,18.40
2022-12-27T04:28:57.709Z,18.43
2022-12-27T04:30:18.157Z,18.30
2022-12-27T04:31:38.845Z,18.23
2022-12-27T04:32:59.156Z,17.77
2022-12-27T04:34:19.226Z,17.80
2022-12-27T04:35:21.351Z,17.67
2022-12-27T04:36:22.915Z,15.97
2022-12-27T04:37:24.444Z,20.17
2022-12-27T04:38:25.955Z,19.53
2022-12-27T04:39:27.546Z,18.30
2022-12-27T04:40:47.418Z,19.40
2022-12-27T04:42:07.343Z,18.17
2022-12-27T04:43:28.191Z,18.00
2022-12-27T04:44:48.553Z,18.27
2022-12-27T04:46:08.577Z,19.63
2022-12-27T04:47:37.627Z,18.43
2022-12-27T04:48:58.076Z,17.10
2022-12-27T04:50:18.656Z,16.37
2022-12-27T04:51:38.845Z,18.30
2022-12-27T04:52:58.803Z,18.87
2022-12-27T04:54:18.671Z,19.07
2022-12-27T04:55:21.975Z,19.47
2022-12-27T04:56:23.491Z,19.60
2022-12-27T04:57:26.873Z,18.43
2022-12-27T04:58:28.832Z,18.80
2022-12-27T04:59:48.712Z,18.10
2022-12-27T05:01:14.008Z,17.27
2022-12-27T05:02:18.290Z,15.97
2022-12-27T05:03:23.259Z,17.03
2022-12-27T05:04:25.232Z,18.10
2022-12-27T05:05:27.312Z,16.70
2022-12-27T05:06:28.905Z,18.20
2022-12-27T05:07:49.472Z,18.23
2022-12-27T05:09:09.529Z,17.33
2022-12-27T05:10:30.207Z,18.90
2022-12-27T05:11:50.067Z,19.10
2022-12-27T05:13:10.108Z,18.07
2022-12-27T05:14:14.753Z,18.87
2022-12-27T05:15:16.472Z,20.17
2022-12-27T05:16:18.087Z,19.93
2022-12-27T05:17:19.746Z,19.50
2022-12-27T05:18:21.390Z,20.13
2022-12-27T05:19:23.045Z,20.60
2022-12-27T05:20:24.739Z,20.30
2022-12-27T05:21:26.700Z,21.10
2022-12-27T05:22:46.451Z,51.70
2022-12-27T05:24:06.799Z,20.27
2022-12-27T05:25:28.106Z,17.50
2022-12-27T05:26:31.371Z,19.20
2022-12-27T05:27:32.983Z,18.00
2022-12-27T05:28:34.579Z,18.60
2022-12-27T05:29:36.122Z,17.37
2022-12-27T05:30:41.062Z,16.87
2022-12-27T05:31:42.964Z,17.57
2022-12-27T05:32:44.540Z,17.27
2022-12-27T05:33:46.520Z,18.80
2022-12-27T05:34:48.041Z,19.30
2022-12-27T05:35:49.609Z,19.63
2022-12-27T05:36:51.106Z,17.50
2022-12-27T05:37:55.711Z,17.10
2022-12-27T05:38:58.473Z,19.10
2022-12-27T05:39:59.998Z,19.27
2022-12-27T05:41:02.701Z,21.13
2022-12-27T05:42:04.383Z,20.23
2022-12-27T05:43:06.035Z,20.30
2022-12-27T05:44:07.894Z,19.67
2022-12-27T05:45:09.590Z,18.73
2022-12-27T05:46:17.748Z,20.20
2022-12-27T05:47:19.347Z,18.83
2022-12-27T05:48:21.929Z,19.33
2022-12-27T05:49:23.528Z,20.40
2022-12-27T05:50:25.126Z,19.23
2022-12-27T05:51:26.643Z,19.00
2022-12-27T05:52:30.450Z,13.93
2022-12-27T05:53:31.979Z,22.13
2022-12-27T05:54:33.580Z,24.17
2022-12-27T05:55:35.121Z,26.27
2022-12-27T05:56:37.403Z,35.23
2022-12-27T05:57:39.068Z,36.73
2022-12-27T05:58:40.986Z,38.90
2022-12-27T05:59:42.516Z,35.97
2022-12-27T06:00:44.033Z,31.60
2022-12-27T06:01:45.731Z,27.40
2022-12-27T06:02:47.466Z,24.20
2022-12-27T06:03:49.119Z,23.50
2022-12-27T06:04:50.685Z,24.93
2022-12-27T06:05:53.072Z,24.70
2022-12-27T06:06:54.649Z,23.90
2022-12-27T06:07:56.344Z,23.43
2022-12-27T06:08:58.570Z,24.47
2022-12-27T06:10:00.147Z,24.37
2022-12-27T06:11:08.047Z,24.03
2022-12-27T06:12:09.728Z,23.83
2022-12-27T06:13:11.364Z,22.40
2022-12-27T06:14:13.143Z,24.53
2022-12-27T06:15:16.011Z,22.67
2022-12-27T06:16:18.913Z,24.13
2022-12-27T06:17:23.765Z,25.13
2022-12-27T06:18:25.471Z,27.73
2022-12-27T06:19:27.498Z,27.80
2022-12-27T06:20:32.640Z,29.27
2022-12-27T06:21:34.394Z,28.37
2022-12-27T06:22:37.125Z,29.83
2022-12-27T06:23:41.173Z,29.37
2022-12-27T06:24:44.012Z,28.70
2022-12-27T06:25:45.730Z,30.10
2022-12-27T06:26:48.278Z,28.53
2022-12-27T06:27:49.965Z,26.60
2022-12-27T06:28:52.540Z,29.17
2022-12-27T06:29:54.073Z,27.43
2022-12-27T06:30:57.929Z,27.77
2022-12-27T06:31:59.695Z,28.17
2022-12-27T06:33:01.534Z,29.40
2022-12-27T06:34:03.206Z,28.33
2022-12-27T06:35:05.541Z,27.40
2022-12-27T06:36:08.822Z,26.57
2022-12-27T06:37:10.491Z,24.17
2022-12-27T06:38:12.037Z,24.87
2022-12-27T06:39:13.627Z,25.30
2022-12-27T06:40:15.325Z,26.17
2022-12-27T06:41:18.540Z,27.43
2022-12-27T06:42:20.116Z,25.40
2022-12-27T06:43:21.705Z,28.60
2022-12-27T06:44:23.267Z,26.47
2022-12-27T06:45:24.929Z,29.03
2022-12-27T06:46:26.638Z,33.23
2022-12-27T06:47:28.219Z,31.37
2022-12-27T06:48:29.948Z,31.90
2022-12-27T06:49:31.536Z,34.07
2022-12-27T06:50:33.107Z,31.53
2022-12-27T06:51:34.623Z,31.87
2022-12-27T06:52:36.339Z,30.43
2022-12-27T06:53:38.259Z,30.60
2022-12-27T06:54:41.418Z,29.83
2022-12-27T06:55:42.962Z,31.77
2022-12-27T06:56:44.712Z,32.40
2022-12-27T06:57:46.254Z,32.27
2022-12-27T06:58:49.197Z,35.60
2022-12-27T06:59:54.031Z,33.13
2022-12-27T07:00:55.845Z,31.67
2022-12-27T07:01:57.594Z,32.80
2022-12-27T07:02:59.232Z,34.43
2022-12-27T07:04:01.101Z,36.90
2022-12-27T07:05:02.728Z,38.73
2022-12-27T07:06:05.688Z,33.00
2022-12-27T07:07:10.812Z,44.30
2022-12-27T07:08:15.198Z,36.70
2022-12-27T07:09:16.863Z,30.43
2022-12-27T07:10:18.579Z,32.97
2022-12-27T07:11:22.338Z,29.93
2022-12-27T07:12:36.301Z,28.37
2022-12-27T07:13:41.411Z,28.37
2022-12-27T07:14:43.174Z,27.00
2022-12-27T07:15:44.803Z,27.90
2022-12-27T07:16:49.180Z,25.40
2022-12-27T07:17:50.860Z,25.57
2022-12-27T07:18:54.242Z,22.10
2022-12-27T07:19:55.857Z,25.73
2022-12-27T07:20:57.643Z,26.40
2022-12-27T07:21:59.201Z,24.90
2022-12-27T07:23:00.736Z,24.83
2022-12-27T07:24:02.336Z,25.87
2022-12-27T07:25:04.583Z,25.83
2022-12-27T07:26:08.954Z,26.27
2022-12-27T07:27:10.463Z,26.00
2022-12-27T07:28:12.002Z,31.30
2022-12-27T07:29:13.632Z,32.27
2022-12-27T07:30:15.280Z,32.33
2022-12-27T07:31:20.121Z,32.10
2022-12-27T07:32:21.793Z,31.10
2022-12-27T07:33:23.319Z,32.77
2022-12-27T07:34:26.124Z,32.10
2022-12-27T07:35:27.698Z,34.40
2022-12-27T07:36:34.456Z,34.93
2022-12-27T07:37:36.069Z,40.77
2022-12-27T07:38:37.688Z,40.13
2022-12-27T07:39:39.235Z,38.60
2022-12-27T07:40:40.906Z,39.97
2022-12-27T07:41:42.551Z,41.20
2022-12-27T07:42:44.093Z,39.87
2022-12-27T07:43:46.192Z,40.57
2022-12-27T07:44:47.905Z,37.37
2022-12-27T07:45:49.506Z,37.97
2022-12-27T07:46:51.326Z,35.10
2022-12-27T07:47:53.372Z,33.00
2022-12-27T07:48:56.532Z,31.90
2022-12-27T07:49:58.116Z,31.10
2022-12-27T07:50:59.958Z,31.33
2022-12-27T07:52:01.558Z,31.97
2022-12-27T07:53:03.232Z,31.97
2022-12-27T07:54:05.185Z,34.33
2022-12-27T07:55:07.050Z,33.33
2022-12-27T07:56:23.454Z,35.53
2022-12-27T07:57:29.520Z,36.67
2022-12-27T07:58:31.081Z,34.50
2022-12-27T07:59:32.716Z,36.50
2022-12-27T08:00:34.387Z,36.67
2022-12-27T08:02:01.727Z,35.60
2022-12-27T08:03:06.586Z,33.43
2022-12-27T08:04:08.285Z,32.07
2022-12-27T08:05:10.051Z,34.87
2022-12-27T08:06:35.122Z,33.00
2022-12-27T08:07:38.185Z,32.83
2022-12-27T08:08:43.217Z,33.13
2022-12-27T08:09:46.552Z,33.77
2022-12-27T08:10:48.185Z,34.67
2022-12-27T08:11:49.791Z,33.83
2022-12-27T08:12:51.348Z,31.83
2022-12-27T08:13:53.392Z,32.77
2022-12-27T08:14:54.919Z,32.83
2022-12-27T08:15:56.592Z,31.87
2022-12-27T08:17:03.836Z,33.17
2022-12-27T08:18:05.664Z,32.20
2022-12-27T08:19:08.623Z,32.07
2022-12-27T08:20:19.252Z,30.70
2022-12-27T08:21:21.035Z,29.43
2022-12-27T08:22:24.169Z,29.03
2022-12-27T08:23:25.731Z,27.60
2022-12-27T08:24:27.268Z,25.30
2022-12-27T08:25:29.749Z,25.50
2022-12-27T08:26:31.417Z,24.40
2022-12-27T08:27:33.133Z,24.73
2022-12-27T08:28:35.110Z,24.63
2022-12-27T08:29:37.851Z,23.63
2022-12-27T08:30:41.112Z,23.03
2022-12-27T08:31:42.662Z,22.40
2022-12-27T08:32:44.195Z,23.43
2022-12-27T08:33:45.819Z,21.87
2022-12-27T08:34:47.888Z,22.40
2022-12-27T08:35:54.059Z,20.97
2022-12-27T08:36:57.411Z,21.23
2022-12-27T08:38:02.458Z,21.07
2022-12-27T08:39:04.078Z,21.00
2022-12-27T08:40:06.278Z,19.97
2022-12-27T08:41:07.836Z,20.37
2022-12-27T08:42:12.673Z,20.77
2022-12-27T08:43:14.607Z,21.07
2022-12-27T08:44:16.194Z,20.50
2022-12-27T08:45:17.738Z,20.60
2022-12-27T08:46:19.713Z,21.03
2022-12-27T08:47:21.676Z,19.83
2022-12-27T08:48:23.261Z,21.17
2022-12-27T08:49:24.871Z,25.00
2022-12-27T08:50:27.774Z,25.40
2022-12-27T08:51:35.950Z,26.37
2022-12-27T08:52:41.883Z,25.67
2022-12-27T08:53:43.633Z,26.47
2022-12-27T08:54:45.170Z,26.93
2022-12-27T08:55:46.760Z,27.93
2022-12-27T08:56:48.278Z,28.37
2022-12-27T08:57:49.909Z,29.43
2022-12-27T08:58:51.483Z,29.93
2022-12-27T08:59:53.109Z,28.60
2022-12-27T09:00:54.821Z,28.13
2022-12-27T09:01:56.555Z,27.37
2022-12-27T09:02:58.729Z,27.90
2022-12-27T09:04:00.294Z,28.30
2022-12-27T09:05:01.939Z,28.40
2022-12-27T09:06:16.268Z,27.83
2022-12-27T09:07:17.863Z,27.90
2022-12-27T09:08:19.467Z,28.40
2022-12-27T09:09:21.252Z,28.93
2022-12-27T09:10:23.967Z,29.10
2022-12-27T09:11:30.560Z,29.67
2022-12-27T09:12:33.614Z,30.50
2022-12-27T09:13:35.202Z,31.23
2022-12-27T09:14:36.799Z,29.97
2022-12-27T09:15:38.752Z,29.90
2022-12-27T09:16:40.404Z,29.73
2022-12-27T09:17:42.272Z,31.03
2022-12-27T09:18:44.372Z,30.63
2022-12-27T09:19:45.922Z,30.13
2022-12-27T09:20:47.497Z,30.20
2022-12-27T09:21:49.033Z,30.30
2022-12-27T09:22:52.131Z,29.43
2022-12-27T09:23:55.220Z,29.00
2022-12-27T09:24:57.100Z,31.63
2022-12-27T09:25:58.690Z,32.33
2022-12-27T09:27:00.207Z,31.57
2022-12-27T09:28:02.070Z,31.00
2022-12-27T09:29:04.288Z,31.83
2022-12-27T09:30:07.750Z,31.93
2022-12-27T09:31:11.079Z,31.67
2022-12-27T09:32:12.640Z,31.20
2022-12-27T09:33:14.161Z,30.83
2022-12-27T09:34:15.728Z,31.43
2022-12-27T09:35:17.578Z,30.33
2022-12-27T09:36:21.648Z,31.90
2022-12-27T09:37:23.190Z,31.53
2022-12-27T09:38:24.719Z,31.57
2022-12-27T09:39:26.238Z,33.37
2022-12-27T09:40:27.831Z,31.17
2022-12-27T09:43:20.770Z,31.40
2022-12-27T09:44:46.703Z,32.43
2022-12-27T09:45:52.044Z,32.13
2022-12-27T09:47:12.647Z,32.33
2022-12-27T09:48:32.592Z,32.73
2022-12-27T09:49:45.650Z,32.47
2022-12-27T09:50:55.532Z,32.60
2022-12-27T09:52:13.056Z,32.43
2022-12-27T09:53:24.911Z,32.33
2022-12-27T09:54:37.296Z,30.43
2022-12-27T09:55:51.703Z,29.63
2022-12-27T09:57:18.913Z,31.13
2022-12-27T09:58:40.589Z,30.17
2022-12-27T09:59:47.205Z,27.63
2022-12-27T10:00:52.794Z,25.90
2022-12-27T10:01:54.427Z,28.97
2022-12-27T10:02:57.983Z,31.13
2022-12-27T10:04:00.549Z,31.33
2022-12-27T10:05:20.843Z,30.30
2022-12-27T10:06:31.459Z,29.23
2022-12-27T10:07:57.507Z,28.87
2022-12-27T10:09:21.505Z,29.67
2022-12-27T10:10:35.406Z,30.67
2022-12-27T10:11:47.719Z,29.10
2022-12-27T10:12:55.384Z,29.63
2022-12-27T10:14:00.916Z,29.30
2022-12-27T10:15:14.772Z,29.87
2022-12-27T10:16:40.492Z,28.70
2022-12-27T10:17:42.014Z,29.60
2022-12-27T10:19:32.308Z,28.10
2022-12-27T10:20:55.403Z,27.03
2022-12-27T10:22:28.919Z,28.63
2022-12-27T10:23:34.271Z,26.30
2022-12-27T10:24:48.990Z,29.47
2022-12-27T10:25:58.101Z,27.80
2022-12-27T10:26:59.988Z,27.30
2022-12-27T10:28:31.479Z,28.03
2022-12-27T10:29:34.149Z,26.83
2022-12-27T10:30:35.749Z,26.77
2022-12-27T10:31:42.628Z,27.63
2022-12-27T10:32:44.604Z,26.90
2022-12-27T10:33:48.485Z,26.20
2022-12-27T10:35:00.618Z,26.33
2022-12-27T10:36:14.460Z,25.83
2022-12-27T10:37:16.640Z,24.20
2022-12-27T10:38:19.448Z,24.70
2022-12-27T10:39:27.798Z,24.90
2022-12-27T10:40:43.292Z,25.83
2022-12-27T10:41:50.686Z,25.33
2022-12-27T10:43:02.880Z,19.97
2022-12-27T10:44:11.369Z,19.30
2022-12-27T10:45:42.741Z,18.10
2022-12-27T10:46:51.222Z,17.13
2022-12-27T10:47:56.019Z,14.33
2022-12-27T10:49:23.294Z,11.80
2022-12-27T10:50:27.684Z,13.77
2022-12-27T10:51:39.416Z,12.80
2022-12-27T10:52:41.053Z,11.27
2022-12-27T10:53:45.601Z,11.83
2022-12-27T10:54:52.513Z,11.43
2022-12-27T10:56:09.971Z,11.67
2022-12-27T10:57:26.986Z,10.77
2022-12-27T10:58:31.469Z,11.50
2022-12-27T10:59:33.083Z,12.17
2022-12-27T11:00:34.910Z,11.73
2022-12-27T11:01:36.661Z,11.93
2022-12-27T11:02:49.947Z,11.90
2022-12-27T11:03:51.967Z,12.17
2022-12-27T11:04:59.464Z,11.57
2022-12-27T11:06:07.529Z,11.30
2022-12-27T11:07:18.777Z,11.50
2022-12-27T11:08:21.410Z,10.73
2022-12-27T11:09:39.184Z,10.97
2022-12-27T11:10:40.881Z,10.77
2022-12-27T11:11:42.420Z,10.80
2022-12-27T11:13:03.436Z,11.00
2022-12-27T11:14:16.024Z,10.87
2022-12-27T11:15:20.724Z,10.80
2022-12-27T11:16:35.025Z,10.73
2022-12-27T11:17:46.962Z,12.53
2022-12-27T11:18:52.591Z,13.30
2022-12-27T11:19:56.216Z,12.57
2022-12-27T11:20:59.367Z,11.50
2022-12-27T11:22:07.049Z,11.30
2022-12-27T11:23:08.613Z,11.23
2022-12-27T11:24:16.411Z,10.90
2022-12-27T11:25:18.669Z,11.70
2022-12-27T11:26:26.540Z,10.43
2022-12-27T11:27:30.269Z,11.43
2022-12-27T11:28:38.401Z,10.20
2022-12-27T11:29:45.579Z,10.67
2022-12-27T11:30:59.165Z,11.60
2022-12-27T11:32:07.339Z,11.60
2022-12-27T11:33:26.896Z,9.97
2022-12-27T11:34:36.119Z,10.87
2022-12-27T11:35:47.621Z,10.60
2022-12-27T11:36:53.336Z,9.70
2022-12-27T11:37:55.258Z,10.63
2022-12-27T11:38:57.238Z,10.80
2022-12-27T11:40:21.636Z,9.83
2022-12-27T11:41:37.106Z,10.30
2022-12-27T11:42:49.591Z,9.27
2022-12-27T11:43:56.192Z,8.87
2022-12-27T11:45:07.224Z,8.60
2022-12-27T11:46:34.189Z,8.47
2022-12-27T11:47:54.132Z,9.07
2022-12-27T11:48:58.526Z,8.10
2022-12-27T11:50:22.572Z,9.10
2022-12-27T11:51:43.035Z,8.47
2022-12-27T11:52:53.630Z,8.87
2022-12-27T11:54:04.386Z,8.40
2022-12-27T11:55:21.133Z,8.70
2022-12-27T11:56:27.233Z,8.23
2022-12-27T11:58:04.174Z,8.63
2022-12-27T11:59:30.727Z,7.43
2022-12-27T12:00:54.622Z,7.60
2022-12-27T12:02:21.220Z,7.97
2022-12-27T12:03:55.835Z,9.57
2022-12-27T12:05:15.833Z,7.90
2022-12-27T12:06:34.451Z,7.70
2022-12-27T12:07:54.585Z,8.50
2022-12-27T12:09:23.341Z,7.80
2022-12-27T12:10:42.042Z,7.37
2022-12-27T12:11:55.508Z,8.00
2022-12-27T12:13:27.880Z,8.07
2022-12-27T12:15:21.384Z,7.70
2022-12-27T12:17:07.147Z,7.07
2022-12-27T12:18:14.424Z,7.97
2022-12-27T12:19:41.435Z,7.20
2022-12-27T12:21:16.901Z,7.30
2022-12-27T12:22:30.483Z,8.03
2022-12-27T12:24:10.613Z,7.53
2022-12-27T12:25:21.031Z,9.17
2022-12-27T12:26:25.177Z,9.50
2022-12-27T12:27:41.558Z,9.87
2022-12-27T12:29:18.316Z,9.17
2022-12-27T12:31:07.511Z,9.83
2022-12-27T12:32:23.721Z,9.57
2022-12-27T12:33:43.305Z,8.80
2022-12-27T12:35:23.927Z,9.67
2022-12-27T12:36:49.149Z,8.73
2022-12-27T12:38:20.687Z,9.27
2022-12-27T12:39:30.884Z,8.77
2022-12-27T12:41:10.090Z,9.47
2022-12-27T12:42:30.059Z,8.07
2022-12-27T12:43:56.947Z,8.37
2022-12-27T12:45:16.521Z,8.40
2022-12-27T12:46:27.508Z,9.33
2022-12-27T12:47:44.675Z,9.00
2022-12-27T12:48:49.088Z,9.70
2022-12-27T12:50:21.368Z,9.43
2022-12-27T12:51:35.642Z,8.57
2022-12-27T12:52:48.977Z,8.13
2022-12-27T12:54:27.014Z,7.63
2022-12-27T12:55:38.863Z,8.67
2022-12-27T12:57:28.487Z,8.00
2022-12-27T12:58:46.194Z,7.67
2022-12-27T13:00:09.342Z,8.00
2022-12-27T13:01:25.992Z,8.00
2022-12-27T13:02:36.829Z,7.50
2022-12-27T13:03:56.060Z,8.10
2022-12-27T13:05:15.952Z,7.80
2022-12-27T13:06:40.188Z,7.67
2022-12-27T13:07:55.821Z,7.57
2022-12-27T13:09:34.783Z,7.80
2022-12-27T13:11:14.424Z,7.90
2022-12-27T13:12:30.966Z,8.10
2022-12-27T13:13:48.145Z,7.87
2022-12-27T13:15:13.604Z,7.73
2022-12-27T13:16:34.743Z,8.40
2022-12-27T13:17:52.856Z,8.43
2022-12-27T13:19:28.909Z,7.63
2022-12-27T13:21:00.542Z,7.67
2022-12-27T13:22:05.150Z,6.70
2022-12-27T13:23:17.303Z,7.10
2022-12-27T13:24:29.416Z,8.10
2022-12-27T13:25:55.332Z,7.50
2022-12-27T13:27:13.754Z,7.93
2022-12-27T13:28:34.353Z,7.60
2022-12-27T13:30:11.298Z,8.77
2022-12-27T13:31:37.684Z,7.20
2022-12-27T13:33:02.041Z,8.03
2022-12-27T13:34:34.505Z,8.30
2022-12-27T13:36:21.026Z,10.10
2022-12-27T13:37:57.678Z,9.33
2022-12-27T13:39:17.894Z,9.10
2022-12-27T13:40:42.053Z,8.30
2022-12-27T13:42:13.409Z,10.20
2022-12-27T13:43:35.915Z,9.23
2022-12-27T13:44:46.570Z,8.97
2022-12-27T13:46:25.351Z,8.80
2022-12-27T13:47:59.111Z,8.93
2022-12-27T13:49:12.513Z,8.60
2022-12-27T13:50:35.026Z,8.77
2022-12-27T13:51:48.469Z,9.27
2022-12-27T13:52:59.814Z,9.43
2022-12-27T13:54:11.059Z,9.57
2022-12-27T13:55:24.698Z,10.00
2022-12-27T13:56:58.337Z,9.97
2022-12-27T13:58:22.139Z,9.50
2022-12-27T13:59:41.651Z,8.93
2022-12-27T14:01:01.474Z,8.17
2022-12-27T14:02:43.752Z,8.53
2022-12-27T14:04:00.173Z,8.77
2022-12-27T14:05:01.704Z,9.30
2022-12-27T14:06:17.454Z,9.37
2022-12-27T14:07:37.147Z,8.90
2022-12-27T14:08:57.233Z,9.50
2022-12-27T14:10:29.246Z,9.47
2022-12-27T14:12:09.522Z,10.20
2022-12-27T14:13:12.814Z,10.27
2022-12-27T14:14:17.826Z,11.07
2022-12-27T14:15:27.381Z,11.30
2022-12-27T14:16:44.555Z,11.23
2022-12-27T14:17:49.053Z,11.13
2022-12-27T14:18:56.669Z,11.27
2022-12-27T14:20:39.768Z,11.20
2022-12-27T14:22:02.293Z,11.13
2022-12-27T14:23:30.175Z,11.37
2022-12-27T14:24:59.529Z,12.20
2022-12-27T14:26:33.792Z,11.77
2022-12-27T14:27:57.195Z,12.30
2022-12-27T14:29:23.654Z,12.37
2022-12-27T14:30:46.530Z,12.17
2022-12-27T14:32:17.142Z,13.60
2022-12-27T14:33:45.984Z,13.33
2022-12-27T14:35:00.145Z,14.23
2022-12-27T14:36:23.292Z,14.10
2022-12-27T14:37:43.697Z,14.60
2022-12-27T14:39:10.954Z,15.50
2022-12-27T14:40:18.808Z,16.27
2022-12-27T14:41:57.186Z,19.13
2022-12-27T14:43:36.240Z,18.47
2022-12-27T14:44:57.980Z,19.60
2022-12-27T14:46:30.090Z,20.10
2022-12-27T14:47:49.787Z,19.13
2022-12-27T14:49:03.544Z,19.00
2022-12-27T14:50:13.860Z,18.63
2022-12-27T14:52:06.119Z,19.67
2022-12-27T14:53:36.446Z,17.97
2022-12-27T14:55:06.627Z,19.03
2022-12-27T14:56:26.770Z,18.63
2022-12-27T14:57:58.420Z,17.23
2022-12-27T14:59:09.597Z,18.17
2022-12-27T15:00:19.454Z,23.30
2022-12-27T15:01:39.363Z,18.47
2022-12-27T15:03:13.363Z,18.93
2022-12-27T15:04:49.215Z,19.00
2022-12-27T15:06:07.153Z,20.23
2022-12-27T15:07:14.922Z,18.30
2022-12-27T15:09:03.839Z,19.10
2022-12-27T15:10:42.809Z,20.77
2022-12-27T15:12:06.138Z,23.37
2022-12-27T15:13:29.868Z,24.40
2022-12-27T15:14:58.114Z,20.43